createdAt,value
2022-08-03T00:01:00.293Z,96.74
2022-08-03T00:03:29.461Z,97.62
2022-08-03T00:06:04.052Z,98.98
2022-08-03T00:08:40.096Z,100.00
2022-08-03T00:11:07.207Z,100.00
2022-08-03T00:13:34.490Z,100.00
2022-08-03T00:16:04.321Z,100.00
2022-08-03T00:18:31.306Z,100.00
2022-08-03T00:20:58.309Z,100.00
2022-08-03T00:23:25.256Z,100.00
2022-08-03T00:25:52.458Z,100.00
2022-08-03T00:28:20.504Z,99.88
2022-08-03T00:30:50.244Z,100.00
2022-08-03T00:33:18.102Z,100.00
2022-08-03T00:35:47.263Z,100.00
2022-08-03T00:38:19.735Z,100.00
2022-08-03T00:40:49.612Z,100.00
2022-08-03T00:43:17.170Z,100.00
2022-08-03T00:45:44.666Z,100.00
2022-08-03T00:48:30.162Z,100.00
2022-08-03T00:51:00.293Z,100.00
2022-08-03T00:53:46.887Z,100.00
2022-08-03T00:56:18.100Z,100.00
2022-08-03T00:58:46.959Z,100.00
2022-08-03T01:01:15.341Z,100.00
2022-08-03T01:03:46.114Z,100.00
2022-08-03T01:06:34.103Z,100.00
2022-08-03T01:09:54.711Z,100.00
2022-08-03T01:12:57.954Z,100.00
2022-08-03T01:15:50.458Z,100.00
2022-08-03T01:19:00.411Z,100.00
2022-08-03T01:22:30.560Z,100.00
2022-08-03T01:25:17.383Z,100.00
2022-08-03T01:28:34.564Z,100.00
2022-08-03T01:31:10.360Z,100.00
2022-08-03T01:33:51.240Z,100.00
2022-08-03T01:36:32.677Z,100.00
2022-08-03T01:39:09.418Z,100.00
2022-08-03T01:41:49.422Z,100.00
2022-08-03T01:44:29.000Z,100.00
2022-08-03T01:47:03.418Z,100.00
2022-08-03T01:49:43.423Z,100.00
2022-08-03T01:52:17.236Z,100.00
2022-08-03T01:54:50.068Z,100.00
2022-08-03T01:57:21.254Z,100.00
2022-08-03T01:59:53.974Z,100.00
2022-08-03T02:02:33.623Z,100.00
2022-08-03T02:05:10.669Z,100.00
2022-08-03T02:07:42.925Z,100.00
2022-08-03T02:10:23.065Z,100.00
2022-08-03T02:13:08.712Z,100.00
2022-08-03T02:15:39.122Z,100.00
2022-08-03T02:18:10.862Z,100.00
2022-08-03T02:20:42.504Z,100.00
2022-08-03T02:23:10.044Z,100.00
2022-08-03T02:25:48.348Z,100.00
2022-08-03T02:28:32.791Z,100.00
2022-08-03T02:31:11.657Z,100.00
2022-08-03T02:33:50.767Z,100.00
2022-08-03T02:36:27.173Z,100.00
2022-08-03T02:39:01.826Z,100.00
2022-08-03T02:41:41.110Z,100.00
2022-08-03T02:44:13.089Z,100.00
2022-08-03T02:46:46.830Z,100.00
2022-08-03T02:49:41.127Z,100.00
2022-08-03T02:52:16.028Z,100.00
2022-08-03T02:54:49.355Z,100.00
2022-08-03T02:57:19.459Z,100.00
2022-08-03T02:59:51.722Z,100.00
2022-08-03T03:02:21.039Z,100.00
2022-08-03T03:05:51.744Z,100.00
2022-08-03T03:07:51.228Z,100.00
2022-08-03T03:10:23.095Z,100.00
2022-08-03T03:13:00.899Z,100.00
2022-08-03T03:15:31.766Z,100.00
2022-08-03T03:18:01.668Z,100.00
2022-08-03T03:20:30.679Z,100.00
2022-08-03T03:23:01.792Z,100.00
2022-08-03T03:25:32.632Z,100.00
2022-08-03T03:28:02.637Z,100.00
2022-08-03T03:30:33.328Z,100.00
2022-08-03T03:33:03.378Z,100.00
2022-08-03T03:35:31.374Z,100.00
2022-08-03T03:38:06.577Z,100.00
2022-08-03T03:40:36.770Z,100.00
2022-08-03T03:43:12.418Z,100.00
2022-08-03T03:45:43.239Z,100.00
2022-08-03T03:48:10.717Z,100.00
2022-08-03T03:50:41.097Z,100.00
2022-08-03T03:53:14.657Z,100.00
2022-08-03T03:55:57.899Z,100.00
2022-08-03T04:03:12.969Z,100.00
2022-08-03T04:05:58.844Z,100.00
2022-08-03T04:08:44.814Z,100.00
2022-08-03T04:11:33.364Z,100.00
2022-08-03T04:14:30.530Z,100.00
2022-08-03T04:17:16.044Z,100.00
2022-08-03T04:19:55.250Z,100.00
2022-08-03T04:22:41.784Z,100.00
2022-08-03T04:25:20.303Z,100.00
2022-08-03T04:28:07.635Z,100.00
2022-08-03T04:30:50.999Z,100.00
2022-08-03T04:33:21.780Z,100.00
2022-08-03T04:36:03.834Z,100.00
2022-08-03T04:38:46.131Z,100.00
2022-08-03T04:41:17.157Z,100.00
2022-08-03T04:43:55.934Z,100.00
2022-08-03T04:46:38.664Z,100.00
2022-08-03T04:49:08.535Z,100.00
2022-08-03T04:51:40.600Z,100.00
2022-08-03T04:54:13.186Z,100.00
2022-08-03T04:56:42.253Z,100.00
2022-08-03T04:59:11.363Z,100.00
2022-08-03T05:01:41.481Z,100.00
2022-08-03T05:04:11.657Z,100.00
2022-08-03T05:06:48.078Z,100.00
2022-08-03T05:09:50.170Z,100.00
2022-08-03T05:12:08.446Z,100.00
2022-08-03T05:14:39.891Z,100.00
2022-08-03T05:17:08.725Z,100.00
2022-08-03T05:19:41.698Z,100.00
2022-08-03T05:22:09.756Z,100.00
2022-08-03T05:24:38.336Z,100.00
2022-08-03T05:27:06.216Z,100.00
2022-08-03T05:29:33.577Z,100.00
2022-08-03T05:32:07.778Z,98.67
2022-08-03T05:34:35.853Z,99.53
2022-08-03T05:37:02.791Z,98.33
2022-08-03T05:39:30.740Z,98.57
2022-08-03T05:41:58.135Z,99.35
2022-08-03T05:44:27.018Z,98.93
2022-08-03T05:46:57.003Z,97.91
2022-08-03T05:49:24.679Z,97.93
2022-08-03T05:51:59.998Z,97.96
2022-08-03T05:54:56.452Z,96.72
2022-08-03T05:57:27.158Z,96.80
2022-08-03T05:59:58.437Z,95.75
2022-08-03T06:02:28.057Z,93.38
2022-08-03T06:04:56.582Z,91.27
2022-08-03T06:07:24.549Z,91.00
2022-08-03T06:10:34.575Z,89.33
2022-08-03T06:12:41.686Z,86.74
2022-08-03T06:15:11.371Z,87.63
2022-08-03T06:17:50.283Z,86.04
2022-08-03T06:20:27.278Z,84.33
2022-08-03T06:23:00.274Z,83.89
2022-08-03T06:25:32.254Z,84.55
2022-08-03T06:28:01.002Z,83.86
2022-08-03T06:30:30.871Z,83.30
2022-08-03T06:32:58.531Z,81.74
2022-08-03T06:35:28.043Z,81.31
2022-08-03T06:37:55.968Z,81.94
2022-08-03T06:40:33.356Z,81.02
2022-08-03T06:43:04.282Z,81.61
2022-08-03T06:45:32.698Z,80.86
2022-08-03T06:48:13.862Z,81.63
2022-08-03T06:50:45.913Z,77.62
2022-08-03T06:53:21.251Z,79.52
2022-08-03T06:55:57.208Z,76.67
2022-08-03T06:58:27.173Z,75.26
2022-08-03T07:01:01.447Z,74.82
2022-08-03T07:03:37.084Z,71.81
2022-08-03T07:06:21.233Z,73.72
2022-08-03T07:08:54.468Z,73.62
2022-08-03T07:11:24.312Z,70.62
2022-08-03T07:13:53.538Z,70.47
2022-08-03T07:16:26.748Z,71.36
2022-08-03T07:18:58.305Z,70.35
2022-08-03T07:21:25.727Z,68.59
2022-08-03T07:23:53.471Z,68.09
2022-08-03T07:26:28.301Z,67.63
2022-08-03T07:29:03.456Z,67.79
2022-08-03T07:31:39.219Z,67.37
2022-08-03T07:34:29.171Z,67.16
2022-08-03T07:37:01.786Z,67.63
2022-08-03T07:39:35.608Z,65.00
2022-08-03T07:42:28.113Z,65.18
2022-08-03T07:44:57.185Z,62.81
2022-08-03T07:47:35.289Z,62.16
2022-08-03T07:50:06.309Z,60.75
2022-08-03T07:52:48.078Z,57.78
2022-08-03T07:55:17.087Z,56.91
2022-08-03T07:57:44.587Z,58.36
2022-08-03T08:00:20.014Z,58.13
2022-08-03T08:02:47.246Z,55.85
2022-08-03T08:05:14.371Z,54.39
2022-08-03T08:07:42.163Z,54.32
2022-08-03T08:10:10.664Z,54.41
2022-08-03T08:12:40.254Z,54.73
2022-08-03T08:15:09.172Z,53.02
2022-08-03T08:17:49.381Z,51.81
2022-08-03T08:20:27.917Z,51.93
2022-08-03T08:23:01.001Z,51.87
2022-08-03T08:25:31.443Z,52.34
2022-08-03T08:28:30.527Z,50.36
2022-08-03T08:30:50.929Z,50.70
2022-08-03T08:33:22.747Z,50.14
2022-08-03T08:35:53.218Z,50.25
2022-08-03T08:38:20.595Z,51.08
2022-08-03T08:40:57.377Z,51.99
2022-08-03T08:43:38.608Z,51.15
2022-08-03T08:46:25.538Z,51.40
2022-08-03T08:48:58.097Z,49.60
2022-08-03T08:51:50.510Z,51.32
2022-08-03T08:54:33.230Z,49.36
2022-08-03T08:57:26.575Z,50.03
2022-08-03T08:59:59.160Z,50.22
2022-08-03T09:02:38.967Z,50.66
2022-08-03T09:05:22.519Z,50.55
2022-08-03T09:08:13.837Z,50.93
2022-08-03T09:10:49.143Z,50.19
2022-08-03T09:13:19.683Z,50.01
2022-08-03T09:16:12.032Z,50.76
2022-08-03T09:19:22.363Z,50.53
2022-08-03T09:22:23.120Z,50.43
2022-08-03T09:25:27.771Z,50.45
2022-08-03T09:27:55.497Z,50.21
2022-08-03T09:30:33.901Z,50.50
2022-08-03T09:33:05.733Z,49.44
2022-08-03T09:35:53.170Z,47.95
2022-08-03T09:38:28.132Z,49.50
2022-08-03T09:41:01.416Z,48.77
2022-08-03T09:43:58.859Z,48.70
2022-08-03T09:46:36.884Z,48.13
2022-08-03T09:49:14.469Z,49.19
2022-08-03T09:52:37.891Z,45.91
2022-08-03T09:55:03.272Z,46.40
2022-08-03T09:57:36.304Z,46.72
2022-08-03T10:00:16.453Z,46.75
2022-08-03T10:02:46.866Z,46.14
2022-08-03T10:05:17.592Z,46.57
2022-08-03T10:08:15.134Z,44.74
2022-08-03T10:10:48.758Z,45.74
2022-08-03T10:13:20.181Z,45.48
2022-08-03T10:16:21.600Z,45.83
2022-08-03T10:18:57.931Z,46.02
2022-08-03T10:24:29.912Z,47.08
2022-08-03T10:27:21.077Z,45.53
2022-08-03T10:30:01.939Z,46.79
2022-08-03T10:32:38.724Z,45.51
2022-08-03T10:35:28.404Z,46.15
2022-08-03T10:38:01.140Z,44.46
2022-08-03T10:40:51.128Z,45.67
2022-08-03T10:43:56.527Z,44.51
2022-08-03T10:46:24.665Z,46.19
2022-08-03T10:48:54.071Z,45.66
2022-08-03T10:51:35.212Z,45.05
2022-08-03T10:54:13.065Z,45.35
2022-08-03T10:57:14.458Z,45.14
2022-08-03T10:59:49.147Z,44.37
2022-08-03T11:02:50.354Z,44.62
2022-08-03T11:05:32.315Z,45.09
2022-08-03T11:08:39.872Z,44.92
2022-08-03T11:11:31.694Z,44.54
2022-08-03T11:14:24.918Z,45.94
2022-08-03T11:17:14.416Z,45.06
2022-08-03T11:20:02.016Z,47.59
2022-08-03T11:23:03.433Z,44.64
2022-08-03T11:26:27.655Z,45.14
2022-08-03T11:29:33.279Z,45.00
2022-08-03T11:32:00.325Z,45.26
2022-08-03T11:34:31.296Z,45.72
2022-08-03T11:37:32.877Z,45.52
2022-08-03T11:40:04.125Z,46.27
2022-08-03T11:42:42.806Z,45.65
2022-08-03T11:45:10.286Z,45.03
2022-08-03T11:47:50.288Z,46.09
2022-08-03T11:53:24.279Z,48.44
2022-08-03T11:55:56.096Z,47.76
2022-08-03T11:59:11.043Z,48.26
2022-08-03T12:01:29.031Z,49.48
2022-08-03T12:04:05.392Z,46.31
2022-08-03T12:06:55.106Z,46.42
2022-08-03T12:09:36.016Z,45.13
2022-08-03T12:12:05.837Z,44.86
2022-08-03T12:14:52.076Z,45.37
2022-08-03T12:50:35.955Z,48.76
2022-08-03T12:53:09.061Z,47.98
2022-08-03T12:55:56.686Z,47.92
2022-08-03T12:58:36.648Z,47.48
2022-08-03T13:01:09.929Z,46.61
2022-08-03T13:03:49.931Z,47.83
2022-08-03T13:06:26.795Z,47.54
2022-08-03T13:09:07.137Z,47.06
2022-08-03T13:11:55.479Z,47.62
2022-08-03T13:14:23.657Z,46.42
2022-08-03T13:16:50.897Z,44.65
2022-08-03T13:19:17.817Z,45.01
2022-08-03T13:21:53.665Z,44.84
2022-08-03T13:24:33.559Z,45.16
2022-08-03T13:27:23.319Z,45.81
2022-08-03T13:29:53.438Z,46.44
2022-08-03T13:32:22.045Z,48.23
2022-08-03T13:34:49.402Z,47.87
2022-08-03T13:37:27.374Z,48.24
2022-08-03T13:39:59.113Z,48.01
2022-08-03T13:42:35.764Z,50.00
2022-08-03T13:45:04.574Z,48.75
2022-08-03T13:47:37.766Z,49.14
2022-08-03T13:50:05.680Z,47.70
2022-08-03T13:52:35.735Z,48.15
2022-08-03T13:55:06.720Z,48.40
2022-08-03T13:58:05.917Z,48.19
2022-08-03T14:00:27.480Z,47.48
2022-08-03T14:03:16.747Z,47.97
2022-08-03T14:05:44.380Z,47.61
2022-08-03T14:08:12.285Z,47.01
2022-08-03T14:10:45.314Z,44.29
2022-08-03T14:13:18.396Z,44.41
2022-08-03T14:15:49.716Z,46.12
2022-08-03T14:18:29.323Z,47.35
2022-08-03T14:21:06.442Z,49.20
2022-08-03T14:23:40.192Z,47.91
2022-08-03T14:26:10.078Z,49.00
2022-08-03T14:28:36.885Z,47.82
2022-08-03T14:31:08.312Z,47.35
2022-08-03T14:33:51.804Z,45.77
2022-08-03T14:36:21.101Z,47.00
2022-08-03T14:39:00.794Z,45.53
2022-08-03T14:41:28.052Z,46.42
2022-08-03T14:44:01.189Z,46.33
2022-08-03T14:46:29.855Z,47.70
2022-08-03T14:50:33.887Z,47.84
2022-08-03T14:51:51.514Z,49.08
2022-08-03T14:54:21.475Z,49.09
2022-08-03T14:56:49.139Z,46.35
2022-08-03T14:59:16.344Z,46.78
2022-08-03T15:02:02.904Z,47.62
2022-08-03T15:04:29.828Z,47.57
2022-08-03T15:06:56.673Z,49.76
2022-08-03T15:09:24.299Z,48.88
2022-08-03T15:11:51.180Z,49.38
2022-08-03T15:14:19.516Z,51.03
2022-08-03T15:16:55.132Z,50.21
2022-08-03T15:20:00.819Z,51.76
2022-08-03T15:22:11.652Z,51.67
2022-08-03T15:24:43.958Z,52.15
2022-08-03T15:27:10.869Z,52.38
2022-08-03T15:30:05.012Z,53.02
2022-08-03T15:32:24.621Z,53.87
2022-08-03T15:34:53.232Z,53.95
2022-08-03T15:37:25.860Z,54.90
2022-08-03T15:40:00.277Z,55.12
2022-08-03T15:42:36.294Z,54.87
2022-08-03T15:45:03.922Z,56.18
2022-08-03T15:47:30.761Z,56.41
2022-08-03T15:49:57.609Z,57.15
2022-08-03T15:52:24.693Z,55.95
2022-08-03T15:54:54.444Z,57.64
2022-08-03T15:57:21.550Z,58.16
2022-08-03T15:59:51.902Z,58.27
2022-08-03T16:02:32.833Z,60.05
2022-08-03T16:04:59.748Z,57.52
2022-08-03T16:08:02.825Z,56.12
2022-08-03T16:10:32.180Z,57.14
2022-08-03T16:13:00.321Z,56.32
2022-08-03T16:15:38.934Z,57.90
2022-08-03T16:18:09.238Z,59.46
2022-08-03T16:20:36.403Z,59.04
2022-08-03T16:23:11.257Z,58.08
2022-08-03T16:25:52.993Z,59.88
2022-08-03T16:28:37.912Z,58.82
2022-08-03T16:31:06.129Z,59.75
2022-08-03T16:33:36.223Z,60.04
2022-08-03T16:36:03.693Z,60.48
2022-08-03T16:38:31.296Z,59.63
2022-08-03T16:40:58.353Z,59.45
2022-08-03T16:43:35.972Z,59.11
2022-08-03T16:46:02.719Z,59.57
2022-08-03T16:48:32.207Z,60.52
2022-08-03T16:50:58.956Z,61.15
2022-08-03T16:53:51.576Z,61.44
2022-08-03T16:56:12.610Z,63.33
2022-08-03T16:58:44.468Z,63.96
2022-08-03T17:01:22.204Z,66.37
2022-08-03T17:04:04.500Z,64.75
2022-08-03T17:06:44.689Z,64.58
2022-08-03T17:09:24.234Z,66.53
2022-08-03T17:11:54.058Z,64.93
2022-08-03T17:14:28.229Z,65.63
2022-08-03T17:17:01.595Z,64.49
2022-08-03T17:19:36.296Z,65.06
2022-08-03T17:22:23.082Z,66.05
2022-08-03T17:24:57.430Z,67.24
2022-08-03T17:28:50.813Z,69.11
2022-08-03T17:30:25.212Z,70.06
2022-08-03T17:32:57.391Z,71.16
2022-08-03T17:35:34.182Z,71.63
2022-08-03T17:38:07.686Z,70.47
2022-08-03T17:40:38.082Z,70.68
2022-08-03T17:44:12.761Z,71.47
2022-08-03T17:45:54.705Z,73.09
2022-08-03T17:48:25.428Z,76.29
2022-08-03T17:51:02.973Z,77.00
2022-08-03T17:53:43.235Z,78.36
2022-08-03T17:57:26.505Z,79.23
2022-08-03T18:00:30.557Z,79.37
2022-08-03T18:03:57.037Z,80.09
2022-08-03T18:06:31.399Z,81.86
2022-08-03T18:10:04.851Z,82.79
2022-08-03T18:12:03.062Z,84.14
2022-08-03T18:14:57.363Z,83.51
2022-08-03T18:17:55.787Z,84.98
2022-08-03T18:20:48.613Z,83.78
2022-08-03T18:23:36.863Z,85.04
2022-08-03T18:26:12.298Z,85.50
2022-08-03T18:28:40.817Z,86.25
2022-08-03T18:34:17.950Z,89.73
2022-08-03T18:36:49.190Z,90.20
2022-08-03T18:39:49.569Z,91.79
2022-08-03T18:42:32.418Z,93.14
2022-08-03T18:45:00.074Z,93.97
2022-08-03T18:48:05.113Z,95.94
2022-08-03T18:50:51.805Z,97.43
2022-08-03T18:54:51.713Z,99.44
2022-08-03T18:57:46.443Z,100.00
2022-08-03T19:03:20.711Z,100.00
2022-08-03T19:06:13.399Z,100.00
2022-08-03T19:08:59.892Z,100.00
2022-08-03T19:12:13.302Z,100.00
2022-08-03T19:14:53.528Z,100.00
2022-08-03T19:17:38.373Z,100.00
2022-08-03T19:20:09.387Z,100.00
2022-08-03T19:22:39.646Z,100.00
2022-08-03T19:25:12.773Z,100.00
2022-08-03T19:27:40.568Z,100.00
2022-08-03T19:30:21.838Z,100.00
2022-08-03T19:32:57.865Z,100.00
2022-08-03T19:35:51.105Z,100.00
2022-08-03T19:38:12.397Z,100.00
2022-08-03T19:40:51.006Z,100.00
2022-08-03T19:43:53.493Z,100.00
2022-08-03T19:46:30.137Z,100.00
2022-08-03T19:49:10.729Z,100.00
2022-08-03T19:52:02.040Z,100.00
2022-08-03T19:54:53.997Z,100.00
2022-08-03T19:57:44.018Z,100.00
2022-08-03T20:00:14.224Z,100.00
2022-08-03T20:02:42.134Z,100.00
2022-08-03T20:05:12.014Z,100.00
2022-08-03T20:07:47.659Z,100.00
2022-08-03T20:10:17.829Z,100.00
2022-08-03T20:12:48.387Z,100.00
2022-08-03T20:15:22.213Z,100.00
2022-08-03T20:17:58.795Z,100.00
2022-08-03T20:20:37.382Z,100.00
2022-08-03T20:23:13.005Z,100.00
2022-08-03T20:25:57.392Z,100.00
2022-08-03T20:28:50.148Z,100.00
2022-08-03T20:31:32.202Z,100.00
2022-08-03T20:34:07.617Z,100.00
2022-08-03T20:36:35.930Z,100.00
2022-08-03T20:39:07.765Z,100.00
2022-08-03T20:41:36.354Z,100.00
2022-08-03T20:44:04.453Z,100.00
2022-08-03T20:46:41.727Z,100.00
2022-08-03T20:49:24.591Z,100.00
2022-08-03T20:51:53.806Z,100.00
2022-08-03T20:54:29.389Z,100.00
2022-08-03T20:57:03.933Z,100.00
2022-08-03T20:59:47.145Z,100.00
2022-08-03T21:02:29.835Z,100.00
2022-08-03T21:05:03.371Z,100.00
2022-08-03T21:08:04.096Z,100.00
2022-08-03T21:10:34.108Z,100.00
2022-08-03T21:16:07.128Z,100.00
2022-08-03T21:18:52.597Z,100.00
2022-08-03T21:21:23.686Z,100.00
2022-08-03T21:23:55.034Z,100.00
2022-08-03T21:26:27.147Z,100.00
2022-08-03T21:28:56.821Z,100.00
2022-08-03T21:31:27.127Z,100.00
2022-08-03T21:34:04.471Z,100.00
2022-08-03T21:36:37.372Z,100.00
2022-08-03T21:39:08.793Z,100.00
2022-08-03T21:41:38.610Z,100.00
2022-08-03T21:44:07.283Z,100.00
2022-08-03T21:46:42.246Z,100.00
2022-08-03T21:50:05.660Z,100.00
2022-08-03T21:52:06.671Z,100.00
2022-08-03T21:54:41.940Z,100.00
2022-08-03T21:57:25.498Z,100.00
2022-08-03T21:59:56.016Z,100.00
2022-08-03T22:02:32.794Z,100.00
2022-08-03T22:04:59.976Z,100.00
2022-08-03T22:07:29.385Z,100.00
2022-08-03T22:10:00.184Z,100.00
2022-08-03T22:12:31.176Z,100.00
2022-08-03T22:15:02.327Z,100.00
2022-08-03T22:17:55.681Z,100.00
2022-08-03T22:20:25.234Z,100.00
2022-08-03T22:22:59.809Z,100.00
2022-08-03T22:25:33.129Z,100.00
2022-08-03T22:28:09.851Z,100.00
2022-08-03T22:30:40.313Z,100.00
2022-08-03T22:33:12.066Z,100.00
2022-08-03T22:35:55.935Z,100.00
2022-08-03T22:38:27.512Z,100.00
2022-08-03T22:40:57.411Z,100.00
2022-08-03T22:43:27.098Z,100.00
2022-08-03T22:46:10.447Z,100.00
2022-08-03T22:48:40.786Z,100.00
2022-08-03T22:51:08.793Z,100.00
2022-08-03T22:53:36.667Z,100.00
2022-08-03T22:56:04.580Z,100.00
2022-08-03T22:58:31.446Z,100.00
2022-08-03T23:01:08.855Z,100.00
2022-08-03T23:04:00.863Z,100.00
2022-08-03T23:06:42.627Z,100.00
2022-08-03T23:09:14.014Z,100.00
2022-08-03T23:11:45.999Z,100.00
2022-08-03T23:14:22.199Z,100.00
2022-08-03T23:16:57.045Z,100.00
2022-08-03T23:19:27.594Z,100.00
2022-08-03T23:22:03.442Z,100.00
2022-08-03T23:24:38.686Z,100.00
2022-08-03T23:27:09.140Z,100.00
2022-08-03T23:29:42.181Z,100.00
2022-08-03T23:32:12.864Z,100.00
2022-08-03T23:34:58.936Z,100.00
2022-08-03T23:37:26.942Z,100.00
2022-08-03T23:39:58.258Z,100.00
2022-08-03T23:42:27.356Z,100.00
2022-08-03T23:44:59.420Z,100.00
2022-08-03T23:47:46.757Z,100.00
2022-08-03T23:50:15.260Z,100.00
2022-08-03T23:53:11.745Z,100.00
2022-08-03T23:56:22.049Z,100.00
2022-08-03T23:59:16.154Z,100.00
